sensor_id;sensor_type;location;lat;lon;timestamp;P1;durP1;ratioP1;P2;durP2;ratioP2
21999;SDS011;11164;48.818;2.322;2023-04-03T00:00:38;22.95;;;13.48;;
21999;SDS011;11164;48.818;2.322;2023-04-03T00:03:03;18.35;;;12.10;;
21999;SDS011;11164;48.818;2.322;2023-04-03T00:05:29;21.58;;;13.30;;
21999;SDS011;11164;48.818;2.322;2023-04-03T00:07:54;22.38;;;13.02;;
21999;SDS011;11164;48.818;2.322;2023-04-03T00:10:20;20.20;;;13.18;;
21999;SDS011;11164;48.818;2.322;2023-04-03T00:12:46;21.55;;;11.88;;
21999;SDS011;11164;48.818;2.322;2023-04-03T00:15:11;21.98;;;12.70;;
21999;SDS011;11164;48.818;2.322;2023-04-03T00:17:37;19.08;;;12.40;;
21999;SDS011;11164;48.818;2.322;2023-04-03T00:20:03;18.45;;;11.77;;
21999;SDS011;11164;48.818;2.322;2023-04-03T00:22:29;18.45;;;12.70;;
21999;SDS011;11164;48.818;2.322;2023-04-03T00:24:55;19.67;;;12.10;;
21999;SDS011;11164;48.818;2.322;2023-04-03T00:27:20;17.65;;;11.50;;
21999;SDS011;11164;48.818;2.322;2023-04-03T00:29:46;18.10;;;11.02;;
21999;SDS011;11164;48.818;2.322;2023-04-03T00:32:11;19.15;;;12.18;;
21999;SDS011;11164;48.818;2.322;2023-04-03T00:34:37;17.58;;;12.45;;
21999;SDS011;11164;48.818;2.322;2023-04-03T00:37:02;19.20;;;11.32;;
21999;SDS011;11164;48.818;2.322;2023-04-03T00:39:28;18.65;;;11.75;;
21999;SDS011;11164;48.818;2.322;2023-04-03T00:41:53;19.40;;;11.60;;
21999;SDS011;11164;48.818;2.322;2023-04-03T00:44:23;18.35;;;11.00;;
21999;SDS011;11164;48.818;2.322;2023-04-03T00:47:08;18.65;;;12.00;;
21999;SDS011;11164;48.818;2.322;2023-04-03T00:49:35;19.45;;;11.93;;
21999;SDS011;11164;48.818;2.322;2023-04-03T00:52:03;17.15;;;10.45;;
21999;SDS011;11164;48.818;2.322;2023-04-03T00:54:32;17.58;;;11.15;;
21999;SDS011;11164;48.818;2.322;2023-04-03T00:56:58;17.65;;;11.10;;
21999;SDS011;11164;48.818;2.322;2023-04-03T00:59:25;16.90;;;11.23;;
21999;SDS011;11164;48.818;2.322;2023-04-03T01:01:55;20.55;;;12.20;;
21999;SDS011;11164;48.818;2.322;2023-04-03T01:04:40;15.70;;;10.48;;
21999;SDS011;11164;48.818;2.322;2023-04-03T01:07:12;18.27;;;10.55;;
21999;SDS011;11164;48.818;2.322;2023-04-03T01:09:41;18.27;;;11.90;;
21999;SDS011;11164;48.818;2.322;2023-04-03T01:14:45;17.73;;;11.98;;
21999;SDS011;11164;48.818;2.322;2023-04-03T01:22:35;20.13;;;11.45;;
21999;SDS011;11164;48.818;2.322;2023-04-03T01:25:06;20.45;;;11.43;;
21999;SDS011;11164;48.818;2.322;2023-04-03T01:27:32;19.02;;;11.30;;
21999;SDS011;11164;48.818;2.322;2023-04-03T01:29:57;18.50;;;11.63;;
21999;SDS011;11164;48.818;2.322;2023-04-03T01:32:23;18.98;;;12.10;;
21999;SDS011;11164;48.818;2.322;2023-04-03T01:34:48;19.88;;;12.35;;
21999;SDS011;11164;48.818;2.322;2023-04-03T01:37:16;19.85;;;12.40;;
21999;SDS011;11164;48.818;2.322;2023-04-03T01:39:42;19.25;;;12.77;;
21999;SDS011;11164;48.818;2.322;2023-04-03T01:42:07;19.73;;;11.25;;
21999;SDS011;11164;48.818;2.322;2023-04-03T01:44:32;17.25;;;10.88;;
21999;SDS011;11164;48.818;2.322;2023-04-03T01:46:58;16.52;;;11.32;;
21999;SDS011;11164;48.818;2.322;2023-04-03T01:49:23;17.40;;;10.68;;
21999;SDS011;11164;48.818;2.322;2023-04-03T01:51:48;18.05;;;10.85;;
21999;SDS011;11164;48.818;2.322;2023-04-03T01:54:14;20.88;;;12.40;;
21999;SDS011;11164;48.818;2.322;2023-04-03T01:56:39;18.83;;;12.63;;
21999;SDS011;11164;48.818;2.322;2023-04-03T01:59:05;22.10;;;13.25;;
21999;SDS011;11164;48.818;2.322;2023-04-03T02:01:30;19.85;;;12.82;;
21999;SDS011;11164;48.818;2.322;2023-04-03T02:03:55;23.48;;;13.70;;
21999;SDS011;11164;48.818;2.322;2023-04-03T02:06:21;21.50;;;12.68;;
21999;SDS011;11164;48.818;2.322;2023-04-03T02:08:46;19.92;;;12.57;;
21999;SDS011;11164;48.818;2.322;2023-04-03T02:11:11;19.70;;;12.65;;
21999;SDS011;11164;48.818;2.322;2023-04-03T02:13:37;20.67;;;11.98;;
21999;SDS011;11164;48.818;2.322;2023-04-03T02:16:06;22.60;;;12.68;;
21999;SDS011;11164;48.818;2.322;2023-04-03T02:18:32;23.17;;;11.48;;
21999;SDS011;11164;48.818;2.322;2023-04-03T02:20:57;20.25;;;12.30;;
21999;SDS011;11164;48.818;2.322;2023-04-03T02:23:23;25.27;;;12.70;;
21999;SDS011;11164;48.818;2.322;2023-04-03T02:25:48;19.30;;;12.02;;
21999;SDS011;11164;48.818;2.322;2023-04-03T02:28:14;20.23;;;11.20;;
21999;SDS011;11164;48.818;2.322;2023-04-03T02:30:39;18.33;;;11.65;;
21999;SDS011;11164;48.818;2.322;2023-04-03T02:33:05;17.95;;;11.70;;
21999;SDS011;11164;48.818;2.322;2023-04-03T02:35:30;18.85;;;10.80;;
21999;SDS011;11164;48.818;2.322;2023-04-03T02:37:55;19.42;;;11.77;;
21999;SDS011;11164;48.818;2.322;2023-04-03T02:40:20;19.52;;;11.20;;
21999;SDS011;11164;48.818;2.322;2023-04-03T02:42:46;19.75;;;11.70;;
21999;SDS011;11164;48.818;2.322;2023-04-03T02:45:11;16.80;;;9.90;;
21999;SDS011;11164;48.818;2.322;2023-04-03T02:47:36;17.42;;;10.15;;
21999;SDS011;11164;48.818;2.322;2023-04-03T02:50:02;16.20;;;10.70;;
21999;SDS011;11164;48.818;2.322;2023-04-03T02:52:27;17.38;;;11.02;;
21999;SDS011;11164;48.818;2.322;2023-04-03T02:54:53;16.40;;;9.80;;
21999;SDS011;11164;48.818;2.322;2023-04-03T02:57:18;16.40;;;10.93;;
21999;SDS011;11164;48.818;2.322;2023-04-03T02:59:44;17.42;;;10.73;;
21999;SDS011;11164;48.818;2.322;2023-04-03T03:02:10;19.00;;;10.90;;
21999;SDS011;11164;48.818;2.322;2023-04-03T03:04:36;18.40;;;10.77;;
21999;SDS011;11164;48.818;2.322;2023-04-03T03:07:01;19.30;;;10.55;;
21999;SDS011;11164;48.818;2.322;2023-04-03T03:09:27;15.93;;;10.00;;
21999;SDS011;11164;48.818;2.322;2023-04-03T03:11:52;14.52;;;9.93;;
21999;SDS011;11164;48.818;2.322;2023-04-03T03:14:18;17.70;;;9.75;;
21999;SDS011;11164;48.818;2.322;2023-04-03T03:16:43;14.93;;;9.82;;
21999;SDS011;11164;48.818;2.322;2023-04-03T03:19:09;15.75;;;9.77;;
21999;SDS011;11164;48.818;2.322;2023-04-03T03:21:34;15.20;;;9.25;;
21999;SDS011;11164;48.818;2.322;2023-04-03T03:23:59;15.85;;;9.70;;
21999;SDS011;11164;48.818;2.322;2023-04-03T03:26:25;18.88;;;9.07;;
21999;SDS011;11164;48.818;2.322;2023-04-03T03:28:50;14.93;;;9.18;;
21999;SDS011;11164;48.818;2.322;2023-04-03T03:31:15;15.93;;;9.20;;
21999;SDS011;11164;48.818;2.322;2023-04-03T03:33:41;15.68;;;9.68;;
21999;SDS011;11164;48.818;2.322;2023-04-03T03:36:06;15.00;;;9.20;;
21999;SDS011;11164;48.818;2.322;2023-04-03T03:38:32;14.40;;;9.45;;
21999;SDS011;11164;48.818;2.322;2023-04-03T03:40:57;15.30;;;9.65;;
21999;SDS011;11164;48.818;2.322;2023-04-03T03:43:22;15.32;;;9.40;;
21999;SDS011;11164;48.818;2.322;2023-04-03T03:45:52;14.40;;;8.88;;
21999;SDS011;11164;48.818;2.322;2023-04-03T03:48:18;16.17;;;9.77;;
21999;SDS011;11164;48.818;2.322;2023-04-03T03:50:44;14.73;;;9.38;;
21999;SDS011;11164;48.818;2.322;2023-04-03T03:53:10;14.35;;;9.30;;
21999;SDS011;11164;48.818;2.322;2023-04-03T03:55:35;13.65;;;8.43;;
21999;SDS011;11164;48.818;2.322;2023-04-03T03:58:01;12.15;;;8.43;;
21999;SDS011;11164;48.818;2.322;2023-04-03T04:00:26;14.23;;;8.32;;
21999;SDS011;11164;48.818;2.322;2023-04-03T04:02:52;13.88;;;8.57;;
21999;SDS011;11164;48.818;2.322;2023-04-03T04:05:17;14.73;;;8.68;;
21999;SDS011;11164;48.818;2.322;2023-04-03T04:07:43;13.52;;;7.93;;
21999;SDS011;11164;48.818;2.322;2023-04-03T04:10:08;14.38;;;8.30;;
21999;SDS011;11164;48.818;2.322;2023-04-03T04:12:34;15.07;;;9.27;;
21999;SDS011;11164;48.818;2.322;2023-04-03T04:15:00;15.27;;;9.00;;
21999;SDS011;11164;48.818;2.322;2023-04-03T04:17:26;13.73;;;8.60;;
21999;SDS011;11164;48.818;2.322;2023-04-03T04:19:51;13.65;;;8.50;;
21999;SDS011;11164;48.818;2.322;2023-04-03T04:22:16;15.55;;;8.52;;
21999;SDS011;11164;48.818;2.322;2023-04-03T04:24:42;15.60;;;8.10;;
21999;SDS011;11164;48.818;2.322;2023-04-03T04:27:07;11.80;;;8.10;;
21999;SDS011;11164;48.818;2.322;2023-04-03T04:29:32;14.65;;;8.70;;
21999;SDS011;11164;48.818;2.322;2023-04-03T04:32:01;14.60;;;9.05;;
21999;SDS011;11164;48.818;2.322;2023-04-03T04:34:27;15.02;;;8.02;;
21999;SDS011;11164;48.818;2.322;2023-04-03T04:36:53;15.40;;;8.93;;
21999;SDS011;11164;48.818;2.322;2023-04-03T04:39:18;13.57;;;8.43;;
21999;SDS011;11164;48.818;2.322;2023-04-03T04:41:43;12.57;;;8.32;;
21999;SDS011;11164;48.818;2.322;2023-04-03T04:44:09;15.10;;;8.27;;
21999;SDS011;11164;48.818;2.322;2023-04-03T04:46:34;12.68;;;8.55;;
21999;SDS011;11164;48.818;2.322;2023-04-03T04:48:59;14.88;;;8.85;;
21999;SDS011;11164;48.818;2.322;2023-04-03T04:51:25;13.30;;;8.05;;
21999;SDS011;11164;48.818;2.322;2023-04-03T04:53:50;15.00;;;8.55;;
21999;SDS011;11164;48.818;2.322;2023-04-03T04:56:16;13.55;;;7.90;;
21999;SDS011;11164;48.818;2.322;2023-04-03T04:58:41;14.07;;;9.27;;
21999;SDS011;11164;48.818;2.322;2023-04-03T05:01:08;13.48;;;8.32;;
21999;SDS011;11164;48.818;2.322;2023-04-03T05:03:35;12.18;;;7.80;;
21999;SDS011;11164;48.818;2.322;2023-04-03T05:06:00;14.25;;;8.43;;
21999;SDS011;11164;48.818;2.322;2023-04-03T05:08:26;14.18;;;8.85;;
21999;SDS011;11164;48.818;2.322;2023-04-03T05:10:52;12.82;;;7.90;;
21999;SDS011;11164;48.818;2.322;2023-04-03T05:13:18;12.07;;;7.80;;
21999;SDS011;11164;48.818;2.322;2023-04-03T05:15:45;12.68;;;7.93;;
21999;SDS011;11164;48.818;2.322;2023-04-03T05:18:11;15.68;;;8.85;;
21999;SDS011;11164;48.818;2.322;2023-04-03T05:20:36;12.23;;;8.10;;
21999;SDS011;11164;48.818;2.322;2023-04-03T05:23:02;13.77;;;7.97;;
21999;SDS011;11164;48.818;2.322;2023-04-03T05:25:27;13.30;;;8.13;;
21999;SDS011;11164;48.818;2.322;2023-04-03T05:27:53;14.57;;;8.63;;
21999;SDS011;11164;48.818;2.322;2023-04-03T05:30:18;14.45;;;9.13;;
21999;SDS011;11164;48.818;2.322;2023-04-03T05:32:43;12.95;;;8.10;;
21999;SDS011;11164;48.818;2.322;2023-04-03T05:35:09;13.18;;;7.90;;
21999;SDS011;11164;48.818;2.322;2023-04-03T05:37:35;12.75;;;7.65;;
21999;SDS011;11164;48.818;2.322;2023-04-03T05:40:01;14.18;;;8.05;;
21999;SDS011;11164;48.818;2.322;2023-04-03T05:42:27;12.25;;;8.02;;
21999;SDS011;11164;48.818;2.322;2023-04-03T05:44:53;12.68;;;8.10;;
21999;SDS011;11164;48.818;2.322;2023-04-03T05:47:18;12.23;;;8.00;;
21999;SDS011;11164;48.818;2.322;2023-04-03T05:49:44;13.25;;;8.52;;
21999;SDS011;11164;48.818;2.322;2023-04-03T05:52:26;13.40;;;8.50;;
21999;SDS011;11164;48.818;2.322;2023-04-03T05:54:53;12.52;;;8.57;;
21999;SDS011;11164;48.818;2.322;2023-04-03T05:57:20;12.43;;;8.10;;
21999;SDS011;11164;48.818;2.322;2023-04-03T05:59:46;14.32;;;8.45;;
21999;SDS011;11164;48.818;2.322;2023-04-03T06:02:12;15.77;;;8.65;;
21999;SDS011;11164;48.818;2.322;2023-04-03T06:04:41;13.60;;;8.50;;
21999;SDS011;11164;48.818;2.322;2023-04-03T06:07:06;13.43;;;8.25;;
21999;SDS011;11164;48.818;2.322;2023-04-03T06:09:35;14.88;;;8.75;;
21999;SDS011;11164;48.818;2.322;2023-04-03T06:12:01;14.10;;;8.98;;
21999;SDS011;11164;48.818;2.322;2023-04-03T06:14:27;15.18;;;8.88;;
21999;SDS011;11164;48.818;2.322;2023-04-03T06:16:52;13.82;;;9.23;;
21999;SDS011;11164;48.818;2.322;2023-04-03T06:19:19;13.27;;;8.95;;
21999;SDS011;11164;48.818;2.322;2023-04-03T06:21:45;14.45;;;8.98;;
21999;SDS011;11164;48.818;2.322;2023-04-03T06:24:12;15.73;;;9.25;;
21999;SDS011;11164;48.818;2.322;2023-04-03T06:26:40;17.50;;;10.30;;
21999;SDS011;11164;48.818;2.322;2023-04-03T06:29:06;15.00;;;8.48;;
21999;SDS011;11164;48.818;2.322;2023-04-03T06:31:32;13.13;;;8.98;;
21999;SDS011;11164;48.818;2.322;2023-04-03T06:33:57;15.10;;;8.65;;
21999;SDS011;11164;48.818;2.322;2023-04-03T06:36:22;15.77;;;8.68;;
21999;SDS011;11164;48.818;2.322;2023-04-03T06:38:48;12.77;;;8.93;;
21999;SDS011;11164;48.818;2.322;2023-04-03T06:41:13;14.27;;;8.98;;
21999;SDS011;11164;48.818;2.322;2023-04-03T06:43:41;12.02;;;8.65;;
21999;SDS011;11164;48.818;2.322;2023-04-03T06:46:09;12.75;;;8.10;;
21999;SDS011;11164;48.818;2.322;2023-04-03T06:48:38;11.30;;;7.55;;
21999;SDS011;11164;48.818;2.322;2023-04-03T06:51:03;12.07;;;8.20;;
21999;SDS011;11164;48.818;2.322;2023-04-03T06:53:29;12.52;;;8.15;;
21999;SDS011;11164;48.818;2.322;2023-04-03T06:55:54;12.00;;;8.05;;
21999;SDS011;11164;48.818;2.322;2023-04-03T06:58:20;10.63;;;7.30;;
21999;SDS011;11164;48.818;2.322;2023-04-03T07:00:46;16.05;;;8.38;;
21999;SDS011;11164;48.818;2.322;2023-04-03T07:03:12;14.48;;;8.80;;
21999;SDS011;11164;48.818;2.322;2023-04-03T07:05:38;12.10;;;7.82;;
21999;SDS011;11164;48.818;2.322;2023-04-03T07:08:03;13.55;;;7.70;;
21999;SDS011;11164;48.818;2.322;2023-04-03T07:10:28;14.68;;;7.90;;
21999;SDS011;11164;48.818;2.322;2023-04-03T07:12:54;11.35;;;7.10;;
21999;SDS011;11164;48.818;2.322;2023-04-03T07:15:19;13.48;;;7.38;;
21999;SDS011;11164;48.818;2.322;2023-04-03T07:17:44;13.50;;;8.40;;
21999;SDS011;11164;48.818;2.322;2023-04-03T07:20:11;12.18;;;7.70;;
21999;SDS011;11164;48.818;2.322;2023-04-03T07:22:36;10.23;;;7.20;;
21999;SDS011;11164;48.818;2.322;2023-04-03T07:25:02;12.07;;;7.57;;
21999;SDS011;11164;48.818;2.322;2023-04-03T07:27:28;11.35;;;7.18;;
21999;SDS011;11164;48.818;2.322;2023-04-03T07:29:53;11.32;;;7.20;;
21999;SDS011;11164;48.818;2.322;2023-04-03T07:32:20;11.68;;;7.40;;
21999;SDS011;11164;48.818;2.322;2023-04-03T07:34:46;10.13;;;7.10;;
21999;SDS011;11164;48.818;2.322;2023-04-03T07:37:11;11.50;;;7.10;;
21999;SDS011;11164;48.818;2.322;2023-04-03T07:39:37;11.75;;;7.53;;
21999;SDS011;11164;48.818;2.322;2023-04-03T07:42:03;12.10;;;7.75;;
21999;SDS011;11164;48.818;2.322;2023-04-03T07:44:28;11.40;;;7.10;;
21999;SDS011;11164;48.818;2.322;2023-04-03T07:46:54;9.20;;;7.07;;
21999;SDS011;11164;48.818;2.322;2023-04-03T07:49:22;12.07;;;7.22;;
21999;SDS011;11164;48.818;2.322;2023-04-03T07:51:51;10.65;;;6.82;;
21999;SDS011;11164;48.818;2.322;2023-04-03T07:54:16;10.85;;;6.97;;
21999;SDS011;11164;48.818;2.322;2023-04-03T07:56:41;13.30;;;7.13;;
21999;SDS011;11164;48.818;2.322;2023-04-03T07:59:08;13.20;;;6.95;;
21999;SDS011;11164;48.818;2.322;2023-04-03T08:01:34;10.52;;;6.28;;
21999;SDS011;11164;48.818;2.322;2023-04-03T08:03:59;11.15;;;6.43;;
21999;SDS011;11164;48.818;2.322;2023-04-03T08:06:26;10.10;;;6.47;;
21999;SDS011;11164;48.818;2.322;2023-04-03T08:08:51;8.93;;;5.75;;
21999;SDS011;11164;48.818;2.322;2023-04-03T08:11:17;12.68;;;6.88;;
21999;SDS011;11164;48.818;2.322;2023-04-03T08:13:43;8.65;;;5.63;;
21999;SDS011;11164;48.818;2.322;2023-04-03T08:16:10;10.68;;;6.38;;
21999;SDS011;11164;48.818;2.322;2023-04-03T08:18:41;14.60;;;6.28;;
21999;SDS011;11164;48.818;2.322;2023-04-03T08:21:08;9.88;;;6.32;;
21999;SDS011;11164;48.818;2.322;2023-04-03T08:23:34;7.50;;;4.80;;
21999;SDS011;11164;48.818;2.322;2023-04-03T08:26:05;9.95;;;5.57;;
21999;SDS011;11164;48.818;2.322;2023-04-03T08:28:40;10.85;;;4.15;;
21999;SDS011;11164;48.818;2.322;2023-04-03T08:31:07;6.45;;;4.22;;
21999;SDS011;11164;48.818;2.322;2023-04-03T08:33:36;7.47;;;4.63;;
21999;SDS011;11164;48.818;2.322;2023-04-03T08:36:03;7.90;;;4.53;;
21999;SDS011;11164;48.818;2.322;2023-04-03T08:38:30;4.72;;;3.22;;
21999;SDS011;11164;48.818;2.322;2023-04-03T08:40:59;5.63;;;3.20;;
21999;SDS011;11164;48.818;2.322;2023-04-03T08:46:01;5.28;;;3.45;;
21999;SDS011;11164;48.818;2.322;2023-04-03T08:48:36;5.53;;;3.40;;
21999;SDS011;11164;48.818;2.322;2023-04-03T08:51:11;5.53;;;3.47;;
21999;SDS011;11164;48.818;2.322;2023-04-03T08:53:40;5.88;;;3.25;;
21999;SDS011;11164;48.818;2.322;2023-04-03T08:56:10;5.85;;;3.35;;
21999;SDS011;11164;48.818;2.322;2023-04-03T08:58:44;8.85;;;3.88;;
21999;SDS011;11164;48.818;2.322;2023-04-03T09:01:19;5.18;;;3.42;;
21999;SDS011;11164;48.818;2.322;2023-04-03T09:03:53;6.38;;;3.70;;
21999;SDS011;11164;48.818;2.322;2023-04-03T09:06:20;8.30;;;3.38;;
21999;SDS011;11164;48.818;2.322;2023-04-03T09:12:36;5.60;;;3.28;;
21999;SDS011;11164;48.818;2.322;2023-04-03T09:14:48;5.70;;;3.10;;
21999;SDS011;11164;48.818;2.322;2023-04-03T09:20:10;6.38;;;3.15;;
21999;SDS011;11164;48.818;2.322;2023-04-03T09:22:45;8.90;;;3.53;;
21999;SDS011;11164;48.818;2.322;2023-04-03T09:27:43;5.47;;;3.25;;
21999;SDS011;11164;48.818;2.322;2023-04-03T09:30:12;7.47;;;2.90;;
21999;SDS011;11164;48.818;2.322;2023-04-03T09:32:40;5.78;;;2.80;;
21999;SDS011;11164;48.818;2.322;2023-04-03T09:35:27;6.05;;;3.63;;
21999;SDS011;11164;48.818;2.322;2023-04-03T09:37:53;5.15;;;3.00;;
21999;SDS011;11164;48.818;2.322;2023-04-03T09:42:52;5.00;;;3.00;;
21999;SDS011;11164;48.818;2.322;2023-04-03T09:45:26;4.40;;;2.80;;
21999;SDS011;11164;48.818;2.322;2023-04-03T09:48:09;7.07;;;3.20;;
21999;SDS011;11164;48.818;2.322;2023-04-03T09:53:28;5.28;;;3.00;;
21999;SDS011;11164;48.818;2.322;2023-04-03T09:55:58;4.80;;;3.00;;
21999;SDS011;11164;48.818;2.322;2023-04-03T10:01:02;5.65;;;3.13;;
21999;SDS011;11164;48.818;2.322;2023-04-03T10:05:56;5.65;;;3.28;;
21999;SDS011;11164;48.818;2.322;2023-04-03T10:08:24;5.05;;;2.92;;
21999;SDS011;11164;48.818;2.322;2023-04-03T10:11:13;7.03;;;3.10;;
21999;SDS011;11164;48.818;2.322;2023-04-03T10:13:56;4.93;;;3.05;;
21999;SDS011;11164;48.818;2.322;2023-04-03T10:22:03;6.50;;;3.53;;
21999;SDS011;11164;48.818;2.322;2023-04-03T10:24:44;6.32;;;2.97;;
21999;SDS011;11164;48.818;2.322;2023-04-03T10:35:13;5.90;;;3.20;;
21999;SDS011;11164;48.818;2.322;2023-04-03T10:53:42;6.28;;;3.08;;
21999;SDS011;11164;48.818;2.322;2023-04-03T10:56:18;7.25;;;3.35;;
21999;SDS011;11164;48.818;2.322;2023-04-03T11:04:57;6.32;;;3.03;;
21999;SDS011;11164;48.818;2.322;2023-04-03T11:07:28;4.97;;;2.63;;
21999;SDS011;11164;48.818;2.322;2023-04-03T11:10:00;5.82;;;2.90;;
21999;SDS011;11164;48.818;2.322;2023-04-03T11:12:46;5.00;;;3.08;;
21999;SDS011;11164;48.818;2.322;2023-04-03T11:15:17;6.00;;;2.70;;
21999;SDS011;11164;48.818;2.322;2023-04-03T11:17:51;5.53;;;2.97;;
21999;SDS011;11164;48.818;2.322;2023-04-03T11:20:25;4.68;;;2.45;;
21999;SDS011;11164;48.818;2.322;2023-04-03T11:22:59;5.40;;;2.60;;
21999;SDS011;11164;48.818;2.322;2023-04-03T11:25:29;5.53;;;2.22;;
21999;SDS011;11164;48.818;2.322;2023-04-03T11:27:58;6.35;;;2.63;;
21999;SDS011;11164;48.818;2.322;2023-04-03T11:35:54;6.75;;;2.58;;
21999;SDS011;11164;48.818;2.322;2023-04-03T11:38:28;4.80;;;2.60;;
21999;SDS011;11164;48.818;2.322;2023-04-03T11:41:01;4.63;;;2.67;;
21999;SDS011;11164;48.818;2.322;2023-04-03T11:43:30;6.38;;;2.70;;
21999;SDS011;11164;48.818;2.322;2023-04-03T11:46:04;6.20;;;2.72;;
21999;SDS011;11164;48.818;2.322;2023-04-03T11:50:57;6.43;;;3.17;;
21999;SDS011;11164;48.818;2.322;2023-04-03T11:53:34;5.60;;;2.33;;
21999;SDS011;11164;48.818;2.322;2023-04-03T12:04:18;6.15;;;2.70;;
21999;SDS011;11164;48.818;2.322;2023-04-03T12:11:58;5.45;;;2.08;;
21999;SDS011;11164;48.818;2.322;2023-04-03T12:14:26;7.18;;;2.20;;
21999;SDS011;11164;48.818;2.322;2023-04-03T12:16:53;5.40;;;2.20;;
21999;SDS011;11164;48.818;2.322;2023-04-03T12:19:32;5.45;;;2.38;;
21999;SDS011;11164;48.818;2.322;2023-04-03T12:24:31;5.10;;;2.00;;
21999;SDS011;11164;48.818;2.322;2023-04-03T12:46:17;5.93;;;2.10;;
21999;SDS011;11164;48.818;2.322;2023-04-03T12:48:39;3.85;;;1.88;;
21999;SDS011;11164;48.818;2.322;2023-04-03T12:51:16;5.07;;;1.95;;
21999;SDS011;11164;48.818;2.322;2023-04-03T12:53:45;5.30;;;2.00;;
21999;SDS011;11164;48.818;2.322;2023-04-03T12:56:45;3.72;;;1.80;;
21999;SDS011;11164;48.818;2.322;2023-04-03T13:01:37;4.18;;;1.80;;
21999;SDS011;11164;48.818;2.322;2023-04-03T13:04:03;3.95;;;1.75;;
21999;SDS011;11164;48.818;2.322;2023-04-03T13:06:36;3.97;;;1.73;;
21999;SDS011;11164;48.818;2.322;2023-04-03T13:09:05;4.30;;;1.98;;
21999;SDS011;11164;48.818;2.322;2023-04-03T13:11:42;6.13;;;2.40;;
21999;SDS011;11164;48.818;2.322;2023-04-03T13:14:17;4.35;;;1.73;;
21999;SDS011;11164;48.818;2.322;2023-04-03T13:16:55;3.58;;;1.85;;
21999;SDS011;11164;48.818;2.322;2023-04-03T13:19:24;3.65;;;2.00;;
21999;SDS011;11164;48.818;2.322;2023-04-03T13:21:52;4.85;;;1.95;;
21999;SDS011;11164;48.818;2.322;2023-04-03T13:24:25;4.63;;;2.03;;
21999;SDS011;11164;48.818;2.322;2023-04-03T13:26:54;4.22;;;1.88;;
21999;SDS011;11164;48.818;2.322;2023-04-03T13:29:27;5.43;;;2.45;;
21999;SDS011;11164;48.818;2.322;2023-04-03T13:31:55;6.80;;;2.00;;
21999;SDS011;11164;48.818;2.322;2023-04-03T13:34:22;4.90;;;2.40;;
21999;SDS011;11164;48.818;2.322;2023-04-03T13:42:30;5.82;;;2.22;;
21999;SDS011;11164;48.818;2.322;2023-04-03T13:44:46;5.22;;;2.25;;
21999;SDS011;11164;48.818;2.322;2023-04-03T13:47:22;5.90;;;1.88;;
21999;SDS011;11164;48.818;2.322;2023-04-03T13:50:02;4.60;;;2.05;;
21999;SDS011;11164;48.818;2.322;2023-04-03T13:52:42;5.90;;;2.00;;
21999;SDS011;11164;48.818;2.322;2023-04-03T13:55:33;6.63;;;2.10;;
21999;SDS011;11164;48.818;2.322;2023-04-03T13:58:00;6.50;;;1.90;;
21999;SDS011;11164;48.818;2.322;2023-04-03T14:00:33;3.95;;;1.80;;
21999;SDS011;11164;48.818;2.322;2023-04-03T14:02:59;7.53;;;2.28;;
21999;SDS011;11164;48.818;2.322;2023-04-03T14:05:24;4.50;;;2.20;;
21999;SDS011;11164;48.818;2.322;2023-04-03T14:07:51;4.45;;;2.03;;
21999;SDS011;11164;48.818;2.322;2023-04-03T14:10:17;4.40;;;2.00;;
21999;SDS011;11164;48.818;2.322;2023-04-03T14:12:43;7.15;;;2.38;;
21999;SDS011;11164;48.818;2.322;2023-04-03T14:15:20;7.93;;;2.15;;
21999;SDS011;11164;48.818;2.322;2023-04-03T14:17:49;4.10;;;2.10;;
21999;SDS011;11164;48.818;2.322;2023-04-03T14:20:17;5.55;;;2.05;;
21999;SDS011;11164;48.818;2.322;2023-04-03T14:22:45;4.07;;;1.90;;
21999;SDS011;11164;48.818;2.322;2023-04-03T14:25:11;6.13;;;1.92;;
21999;SDS011;11164;48.818;2.322;2023-04-03T14:27:39;7.43;;;2.10;;
21999;SDS011;11164;48.818;2.322;2023-04-03T14:30:07;8.60;;;2.50;;
21999;SDS011;11164;48.818;2.322;2023-04-03T14:32:46;4.30;;;2.35;;
21999;SDS011;11164;48.818;2.322;2023-04-03T14:35:12;6.15;;;1.92;;
21999;SDS011;11164;48.818;2.322;2023-04-03T14:37:37;4.03;;;1.90;;
21999;SDS011;11164;48.818;2.322;2023-04-03T14:40:03;4.38;;;2.13;;
21999;SDS011;11164;48.818;2.322;2023-04-03T14:42:31;4.20;;;1.88;;
21999;SDS011;11164;48.818;2.322;2023-04-03T14:44:59;4.80;;;1.83;;
21999;SDS011;11164;48.818;2.322;2023-04-03T14:47:26;6.22;;;1.98;;
21999;SDS011;11164;48.818;2.322;2023-04-03T14:49:54;4.13;;;1.88;;
21999;SDS011;11164;48.818;2.322;2023-04-03T14:52:21;4.50;;;1.80;;
21999;SDS011;11164;48.818;2.322;2023-04-03T14:54:50;4.25;;;1.75;;
21999;SDS011;11164;48.818;2.322;2023-04-03T14:57:17;4.47;;;1.70;;
21999;SDS011;11164;48.818;2.322;2023-04-03T14:59:44;4.70;;;1.80;;
21999;SDS011;11164;48.818;2.322;2023-04-03T15:02:31;7.30;;;1.70;;
21999;SDS011;11164;48.818;2.322;2023-04-03T15:05:00;5.40;;;1.80;;
21999;SDS011;11164;48.818;2.322;2023-04-03T15:07:29;4.45;;;1.67;;
21999;SDS011;11164;48.818;2.322;2023-04-03T15:09:57;5.00;;;1.75;;
21999;SDS011;11164;48.818;2.322;2023-04-03T15:12:26;3.85;;;1.77;;
21999;SDS011;11164;48.818;2.322;2023-04-03T15:14:51;3.88;;;1.70;;
21999;SDS011;11164;48.818;2.322;2023-04-03T15:17:17;4.80;;;1.90;;
21999;SDS011;11164;48.818;2.322;2023-04-03T15:19:46;7.03;;;2.05;;
21999;SDS011;11164;48.818;2.322;2023-04-03T15:22:18;5.18;;;2.03;;
21999;SDS011;11164;48.818;2.322;2023-04-03T15:24:45;5.47;;;2.00;;
21999;SDS011;11164;48.818;2.322;2023-04-03T15:27:11;6.05;;;2.03;;
21999;SDS011;11164;48.818;2.322;2023-04-03T15:29:38;3.78;;;1.83;;
21999;SDS011;11164;48.818;2.322;2023-04-03T15:32:05;3.15;;;1.70;;
21999;SDS011;11164;48.818;2.322;2023-04-03T15:34:30;3.75;;;1.75;;
21999;SDS011;11164;48.818;2.322;2023-04-03T15:36:56;3.90;;;1.63;;
21999;SDS011;11164;48.818;2.322;2023-04-03T15:39:21;4.55;;;1.60;;
21999;SDS011;11164;48.818;2.322;2023-04-03T15:41:48;4.90;;;2.00;;
21999;SDS011;11164;48.818;2.322;2023-04-03T15:44:13;3.35;;;1.52;;
21999;SDS011;11164;48.818;2.322;2023-04-03T15:46:42;6.25;;;1.75;;
21999;SDS011;11164;48.818;2.322;2023-04-03T15:49:08;5.53;;;1.50;;
21999;SDS011;11164;48.818;2.322;2023-04-03T15:51:33;4.68;;;1.92;;
21999;SDS011;11164;48.818;2.322;2023-04-03T15:53:59;5.20;;;2.00;;
21999;SDS011;11164;48.818;2.322;2023-04-03T15:56:24;4.15;;;1.75;;
21999;SDS011;11164;48.818;2.322;2023-04-03T15:58:50;4.03;;;2.00;;
21999;SDS011;11164;48.818;2.322;2023-04-03T16:01:15;3.15;;;1.50;;
21999;SDS011;11164;48.818;2.322;2023-04-03T16:03:41;5.30;;;1.80;;
21999;SDS011;11164;48.818;2.322;2023-04-03T16:06:15;4.78;;;1.70;;
21999;SDS011;11164;48.818;2.322;2023-04-03T16:08:42;4.15;;;1.70;;
21999;SDS011;11164;48.818;2.322;2023-04-03T16:11:07;4.30;;;1.50;;
21999;SDS011;11164;48.818;2.322;2023-04-03T16:13:33;3.97;;;1.65;;
21999;SDS011;11164;48.818;2.322;2023-04-03T16:15:59;3.63;;;1.30;;
21999;SDS011;11164;48.818;2.322;2023-04-03T16:18:26;3.45;;;1.73;;
21999;SDS011;11164;48.818;2.322;2023-04-03T16:20:52;4.28;;;1.90;;
21999;SDS011;11164;48.818;2.322;2023-04-03T16:23:17;4.60;;;2.10;;
21999;SDS011;11164;48.818;2.322;2023-04-03T16:25:43;4.55;;;1.90;;
21999;SDS011;11164;48.818;2.322;2023-04-03T16:28:11;4.18;;;1.90;;
21999;SDS011;11164;48.818;2.322;2023-04-03T16:30:42;5.20;;;2.10;;
21999;SDS011;11164;48.818;2.322;2023-04-03T16:33:10;4.88;;;1.70;;
21999;SDS011;11164;48.818;2.322;2023-04-03T16:35:37;4.38;;;2.13;;
21999;SDS011;11164;48.818;2.322;2023-04-03T16:38:02;3.72;;;1.65;;